sensor_id;sensor_type;location;lat;lon;timestamp;P1;durP1;ratioP1;P2;durP2;ratioP2
70796;SDS011;63842;52.144;5.360;2023-04-03T00:02:09;3.22;;;1.20;;
70796;SDS011;63842;52.144;5.360;2023-04-03T00:04:37;3.53;;;1.00;;
70796;SDS011;63842;52.144;5.360;2023-04-03T00:07:04;3.95;;;1.35;;
70796;SDS011;63842;52.144;5.360;2023-04-03T00:09:31;4.88;;;1.33;;
70796;SDS011;63842;52.144;5.360;2023-04-03T00:11:59;3.95;;;1.27;;
70796;SDS011;63842;52.144;5.360;2023-04-03T00:14:26;3.88;;;1.30;;
70796;SDS011;63842;52.144;5.360;2023-04-03T00:16:53;5.55;;;1.27;;
70796;SDS011;63842;52.144;5.360;2023-04-03T00:19:21;4.28;;;1.30;;
70796;SDS011;63842;52.144;5.360;2023-04-03T00:21:48;4.28;;;1.10;;
70796;SDS011;63842;52.144;5.360;2023-04-03T00:24:15;3.78;;;1.30;;
70796;SDS011;63842;52.144;5.360;2023-04-03T00:26:42;4.72;;;1.30;;
70796;SDS011;63842;52.144;5.360;2023-04-03T00:29:10;3.25;;;1.20;;
70796;SDS011;63842;52.144;5.360;2023-04-03T00:31:37;5.78;;;1.45;;
70796;SDS011;63842;52.144;5.360;2023-04-03T00:34:04;4.88;;;1.20;;
70796;SDS011;63842;52.144;5.360;2023-04-03T00:36:31;4.35;;;1.30;;
70796;SDS011;63842;52.144;5.360;2023-04-03T00:38:59;5.45;;;1.65;;
70796;SDS011;63842;52.144;5.360;2023-04-03T00:41:26;5.18;;;1.33;;
70796;SDS011;63842;52.144;5.360;2023-04-03T00:43:54;6.20;;;1.40;;
70796;SDS011;63842;52.144;5.360;2023-04-03T00:46:21;4.80;;;1.40;;
70796;SDS011;63842;52.144;5.360;2023-04-03T00:48:49;6.85;;;1.30;;
70796;SDS011;63842;52.144;5.360;2023-04-03T00:51:17;3.35;;;1.10;;
70796;SDS011;63842;52.144;5.360;2023-04-03T00:53:48;3.67;;;1.40;;
70796;SDS011;63842;52.144;5.360;2023-04-03T00:56:16;4.32;;;1.33;;
70796;SDS011;63842;52.144;5.360;2023-04-03T00:58:54;4.55;;;1.30;;
70796;SDS011;63842;52.144;5.360;2023-04-03T01:01:23;4.63;;;1.30;;
70796;SDS011;63842;52.144;5.360;2023-04-03T01:03:51;6.07;;;1.40;;
70796;SDS011;63842;52.144;5.360;2023-04-03T01:06:20;3.42;;;1.17;;
70796;SDS011;63842;52.144;5.360;2023-04-03T01:08:49;3.85;;;1.40;;
70796;SDS011;63842;52.144;5.360;2023-04-03T01:11:17;6.82;;;1.45;;
70796;SDS011;63842;52.144;5.360;2023-04-03T01:13:44;5.18;;;1.52;;
70796;SDS011;63842;52.144;5.360;2023-04-03T01:16:12;5.00;;;1.40;;
70796;SDS011;63842;52.144;5.360;2023-04-03T01:18:39;5.88;;;1.20;;
70796;SDS011;63842;52.144;5.360;2023-04-03T01:23:53;4.80;;;1.50;;
70796;SDS011;63842;52.144;5.360;2023-04-03T01:26:22;4.47;;;1.50;;
70796;SDS011;63842;52.144;5.360;2023-04-03T01:28:49;4.95;;;1.50;;
70796;SDS011;63842;52.144;5.360;2023-04-03T01:31:24;5.03;;;1.40;;
70796;SDS011;63842;52.144;5.360;2023-04-03T01:33:54;7.43;;;1.40;;
70796;SDS011;63842;52.144;5.360;2023-04-03T01:36:23;3.97;;;1.48;;
70796;SDS011;63842;52.144;5.360;2023-04-03T01:38:52;3.95;;;1.15;;
70796;SDS011;63842;52.144;5.360;2023-04-03T01:41:19;4.28;;;1.40;;
70796;SDS011;63842;52.144;5.360;2023-04-03T01:43:48;4.78;;;1.40;;
70796;SDS011;63842;52.144;5.360;2023-04-03T01:46:16;6.18;;;1.55;;
70796;SDS011;63842;52.144;5.360;2023-04-03T01:48:43;7.00;;;1.50;;
70796;SDS011;63842;52.144;5.360;2023-04-03T01:51:11;4.65;;;1.20;;
70796;SDS011;63842;52.144;5.360;2023-04-03T01:53:38;3.88;;;1.33;;
70796;SDS011;63842;52.144;5.360;2023-04-03T01:56:06;3.58;;;1.30;;
70796;SDS011;63842;52.144;5.360;2023-04-03T01:58:33;3.88;;;1.40;;
70796;SDS011;63842;52.144;5.360;2023-04-03T02:01:01;3.30;;;1.20;;
70796;SDS011;63842;52.144;5.360;2023-04-03T02:03:28;3.08;;;1.17;;
70796;SDS011;63842;52.144;5.360;2023-04-03T02:05:56;3.90;;;1.50;;
70796;SDS011;63842;52.144;5.360;2023-04-03T02:08:23;4.03;;;1.60;;
70796;SDS011;63842;52.144;5.360;2023-04-03T02:10:50;4.18;;;1.40;;
70796;SDS011;63842;52.144;5.360;2023-04-03T02:13:17;4.53;;;1.80;;
70796;SDS011;63842;52.144;5.360;2023-04-03T02:15:45;6.10;;;1.60;;
70796;SDS011;63842;52.144;5.360;2023-04-03T02:18:15;5.63;;;1.30;;
70796;SDS011;63842;52.144;5.360;2023-04-03T02:20:43;4.43;;;1.20;;
70796;SDS011;63842;52.144;5.360;2023-04-03T02:23:10;5.30;;;1.50;;
70796;SDS011;63842;52.144;5.360;2023-04-03T02:25:37;6.03;;;1.35;;
70796;SDS011;63842;52.144;5.360;2023-04-03T02:28:05;4.32;;;1.55;;
70796;SDS011;63842;52.144;5.360;2023-04-03T02:30:32;5.00;;;1.45;;
70796;SDS011;63842;52.144;5.360;2023-04-03T02:33:00;4.00;;;1.30;;
70796;SDS011;63842;52.144;5.360;2023-04-03T02:35:28;4.13;;;1.45;;
70796;SDS011;63842;52.144;5.360;2023-04-03T02:37:57;4.35;;;1.40;;
70796;SDS011;63842;52.144;5.360;2023-04-03T02:40:24;5.70;;;1.60;;
70796;SDS011;63842;52.144;5.360;2023-04-03T02:42:52;6.85;;;1.67;;
70796;SDS011;63842;52.144;5.360;2023-04-03T02:45:20;5.70;;;1.48;;
70796;SDS011;63842;52.144;5.360;2023-04-03T02:47:48;7.05;;;1.50;;
70796;SDS011;63842;52.144;5.360;2023-04-03T02:50:15;4.88;;;1.45;;
70796;SDS011;63842;52.144;5.360;2023-04-03T02:52:42;6.65;;;1.42;;
70796;SDS011;63842;52.144;5.360;2023-04-03T02:55:12;4.10;;;1.27;;
70796;SDS011;63842;52.144;5.360;2023-04-03T02:57:40;6.07;;;1.58;;
70796;SDS011;63842;52.144;5.360;2023-04-03T03:00:08;4.60;;;1.40;;
70796;SDS011;63842;52.144;5.360;2023-04-03T03:02:36;4.93;;;1.88;;
70796;SDS011;63842;52.144;5.360;2023-04-03T03:05:03;6.43;;;1.70;;
70796;SDS011;63842;52.144;5.360;2023-04-03T03:07:31;6.32;;;1.58;;
70796;SDS011;63842;52.144;5.360;2023-04-03T03:09:58;5.75;;;1.55;;
70796;SDS011;63842;52.144;5.360;2023-04-03T03:12:25;3.30;;;1.60;;
70796;SDS011;63842;52.144;5.360;2023-04-03T03:14:54;4.85;;;1.70;;
70796;SDS011;63842;52.144;5.360;2023-04-03T03:17:22;5.40;;;1.52;;
70796;SDS011;63842;52.144;5.360;2023-04-03T03:19:49;3.88;;;1.40;;
70796;SDS011;63842;52.144;5.360;2023-04-03T03:22:16;5.65;;;1.73;;
70796;SDS011;63842;52.144;5.360;2023-04-03T03:24:44;3.40;;;1.30;;
70796;SDS011;63842;52.144;5.360;2023-04-03T03:27:11;5.13;;;1.63;;
70796;SDS011;63842;52.144;5.360;2023-04-03T03:29:38;8.70;;;1.70;;
70796;SDS011;63842;52.144;5.360;2023-04-03T03:32:06;6.18;;;1.60;;
70796;SDS011;63842;52.144;5.360;2023-04-03T03:34:33;6.05;;;1.40;;
70796;SDS011;63842;52.144;5.360;2023-04-03T03:37:00;7.25;;;1.50;;
70796;SDS011;63842;52.144;5.360;2023-04-03T03:39:28;4.18;;;1.48;;
70796;SDS011;63842;52.144;5.360;2023-04-03T03:41:55;6.65;;;1.90;;
70796;SDS011;63842;52.144;5.360;2023-04-03T03:44:23;4.80;;;1.70;;
70796;SDS011;63842;52.144;5.360;2023-04-03T03:46:52;5.00;;;1.52;;
70796;SDS011;63842;52.144;5.360;2023-04-03T03:49:20;5.07;;;1.70;;
70796;SDS011;63842;52.144;5.360;2023-04-03T03:51:47;5.15;;;1.60;;
70796;SDS011;63842;52.144;5.360;2023-04-03T03:54:14;5.88;;;1.65;;
70796;SDS011;63842;52.144;5.360;2023-04-03T03:56:42;5.38;;;1.50;;
70796;SDS011;63842;52.144;5.360;2023-04-03T03:59:11;4.40;;;1.50;;
70796;SDS011;63842;52.144;5.360;2023-04-03T04:01:39;6.03;;;1.70;;
70796;SDS011;63842;52.144;5.360;2023-04-03T04:04:06;4.05;;;1.55;;
70796;SDS011;63842;52.144;5.360;2023-04-03T04:06:34;6.22;;;1.80;;
70796;SDS011;63842;52.144;5.360;2023-04-03T04:09:04;5.07;;;1.60;;
70796;SDS011;63842;52.144;5.360;2023-04-03T04:11:32;6.18;;;1.60;;
70796;SDS011;63842;52.144;5.360;2023-04-03T04:13:59;5.00;;;1.60;;
70796;SDS011;63842;52.144;5.360;2023-04-03T04:16:28;6.13;;;1.85;;
70796;SDS011;63842;52.144;5.360;2023-04-03T04:18:59;5.40;;;1.50;;
70796;SDS011;63842;52.144;5.360;2023-04-03T04:21:27;8.15;;;1.73;;
70796;SDS011;63842;52.144;5.360;2023-04-03T04:23:54;5.35;;;1.63;;
70796;SDS011;63842;52.144;5.360;2023-04-03T04:26:22;8.25;;;1.90;;
70796;SDS011;63842;52.144;5.360;2023-04-03T04:28:50;6.57;;;1.70;;
70796;SDS011;63842;52.144;5.360;2023-04-03T04:31:18;6.22;;;1.75;;
70796;SDS011;63842;52.144;5.360;2023-04-03T04:33:45;4.88;;;1.55;;
70796;SDS011;63842;52.144;5.360;2023-04-03T04:36:14;6.22;;;1.50;;
70796;SDS011;63842;52.144;5.360;2023-04-03T04:38:44;6.97;;;1.63;;
70796;SDS011;63842;52.144;5.360;2023-04-03T04:41:11;6.40;;;1.90;;
70796;SDS011;63842;52.144;5.360;2023-04-03T04:43:39;5.63;;;2.85;;
70796;SDS011;63842;52.144;5.360;2023-04-03T04:46:09;5.70;;;1.55;;
70796;SDS011;63842;52.144;5.360;2023-04-03T04:48:43;5.90;;;1.77;;
70796;SDS011;63842;52.144;5.360;2023-04-03T04:51:12;6.72;;;2.10;;
70796;SDS011;63842;52.144;5.360;2023-04-03T04:53:40;4.57;;;1.70;;
70796;SDS011;63842;52.144;5.360;2023-04-03T04:56:10;4.20;;;1.55;;
70796;SDS011;63842;52.144;5.360;2023-04-03T04:58:38;4.60;;;1.63;;
70796;SDS011;63842;52.144;5.360;2023-04-03T05:01:07;5.95;;;1.67;;
70796;SDS011;63842;52.144;5.360;2023-04-03T05:03:40;9.57;;;1.90;;
70796;SDS011;63842;52.144;5.360;2023-04-03T05:06:08;6.32;;;1.83;;
70796;SDS011;63842;52.144;5.360;2023-04-03T05:08:36;6.00;;;2.05;;
70796;SDS011;63842;52.144;5.360;2023-04-03T05:11:04;6.72;;;2.42;;
70796;SDS011;63842;52.144;5.360;2023-04-03T05:13:33;5.90;;;1.77;;
70796;SDS011;63842;52.144;5.360;2023-04-03T05:16:01;5.93;;;1.80;;
70796;SDS011;63842;52.144;5.360;2023-04-03T05:18:29;7.22;;;2.15;;
70796;SDS011;63842;52.144;5.360;2023-04-03T05:20:59;7.47;;;2.00;;
70796;SDS011;63842;52.144;5.360;2023-04-03T05:23:26;8.38;;;1.95;;
70796;SDS011;63842;52.144;5.360;2023-04-03T05:25:56;7.10;;;1.90;;
70796;SDS011;63842;52.144;5.360;2023-04-03T05:28:23;5.75;;;1.70;;
70796;SDS011;63842;52.144;5.360;2023-04-03T05:30:52;8.20;;;1.90;;
70796;SDS011;63842;52.144;5.360;2023-04-03T05:33:21;6.95;;;2.00;;
70796;SDS011;63842;52.144;5.360;2023-04-03T05:35:52;5.25;;;1.85;;
70796;SDS011;63842;52.144;5.360;2023-04-03T05:38:24;8.32;;;1.98;;
70796;SDS011;63842;52.144;5.360;2023-04-03T05:40:52;4.18;;;1.67;;
70796;SDS011;63842;52.144;5.360;2023-04-03T05:43:20;13.73;;;5.45;;
70796;SDS011;63842;52.144;5.360;2023-04-03T05:45:49;9.32;;;4.38;;
70796;SDS011;63842;52.144;5.360;2023-04-03T05:48:16;7.68;;;2.47;;
70796;SDS011;63842;52.144;5.360;2023-04-03T05:50:44;10.15;;;2.40;;
70796;SDS011;63842;52.144;5.360;2023-04-03T05:53:19;7.00;;;2.28;;
70796;SDS011;63842;52.144;5.360;2023-04-03T05:55:48;6.47;;;1.90;;
70796;SDS011;63842;52.144;5.360;2023-04-03T05:58:16;9.05;;;2.03;;
70796;SDS011;63842;52.144;5.360;2023-04-03T06:00:45;6.10;;;2.03;;
70796;SDS011;63842;52.144;5.360;2023-04-03T06:03:13;8.25;;;1.90;;
70796;SDS011;63842;52.144;5.360;2023-04-03T06:05:41;8.95;;;2.00;;
70796;SDS011;63842;52.144;5.360;2023-04-03T06:08:10;7.57;;;1.90;;
70796;SDS011;63842;52.144;5.360;2023-04-03T06:10:37;6.93;;;1.80;;
70796;SDS011;63842;52.144;5.360;2023-04-03T06:13:05;5.82;;;1.55;;
70796;SDS011;63842;52.144;5.360;2023-04-03T06:15:33;8.07;;;2.20;;
70796;SDS011;63842;52.144;5.360;2023-04-03T06:18:00;6.38;;;1.75;;
70796;SDS011;63842;52.144;5.360;2023-04-03T06:20:27;9.07;;;2.28;;
70796;SDS011;63842;52.144;5.360;2023-04-03T06:22:55;6.95;;;1.90;;
70796;SDS011;63842;52.144;5.360;2023-04-03T06:25:22;6.32;;;1.63;;
70796;SDS011;63842;52.144;5.360;2023-04-03T06:27:49;8.82;;;2.38;;
70796;SDS011;63842;52.144;5.360;2023-04-03T06:30:16;7.68;;;1.77;;
70796;SDS011;63842;52.144;5.360;2023-04-03T06:32:44;7.55;;;2.20;;
70796;SDS011;63842;52.144;5.360;2023-04-03T06:35:11;6.20;;;1.90;;
70796;SDS011;63842;52.144;5.360;2023-04-03T06:37:38;9.50;;;2.35;;
70796;SDS011;63842;52.144;5.360;2023-04-03T06:40:06;9.05;;;1.98;;
70796;SDS011;63842;52.144;5.360;2023-04-03T06:42:34;6.55;;;1.88;;
70796;SDS011;63842;52.144;5.360;2023-04-03T06:45:09;8.32;;;1.77;;
70796;SDS011;63842;52.144;5.360;2023-04-03T06:47:37;8.05;;;2.08;;
70796;SDS011;63842;52.144;5.360;2023-04-03T06:50:05;7.05;;;1.98;;
70796;SDS011;63842;52.144;5.360;2023-04-03T06:52:32;7.72;;;1.90;;
70796;SDS011;63842;52.144;5.360;2023-04-03T06:55:00;7.60;;;1.60;;
70796;SDS011;63842;52.144;5.360;2023-04-03T06:57:27;5.85;;;1.60;;
70796;SDS011;63842;52.144;5.360;2023-04-03T06:59:54;5.22;;;1.83;;
70796;SDS011;63842;52.144;5.360;2023-04-03T07:02:22;7.47;;;1.88;;
70796;SDS011;63842;52.144;5.360;2023-04-03T07:04:49;6.05;;;1.90;;
70796;SDS011;63842;52.144;5.360;2023-04-03T07:07:16;6.15;;;1.90;;
70796;SDS011;63842;52.144;5.360;2023-04-03T07:09:44;9.13;;;2.20;;
70796;SDS011;63842;52.144;5.360;2023-04-03T07:12:13;7.90;;;1.77;;
70796;SDS011;63842;52.144;5.360;2023-04-03T07:14:41;5.25;;;1.80;;
70796;SDS011;63842;52.144;5.360;2023-04-03T07:17:09;6.00;;;1.80;;
70796;SDS011;63842;52.144;5.360;2023-04-03T07:19:36;8.80;;;1.65;;
70796;SDS011;63842;52.144;5.360;2023-04-03T07:22:03;4.93;;;1.52;;
70796;SDS011;63842;52.144;5.360;2023-04-03T07:24:31;4.38;;;1.75;;
70796;SDS011;63842;52.144;5.360;2023-04-03T07:26:58;5.78;;;1.80;;
70796;SDS011;63842;52.144;5.360;2023-04-03T07:29:25;4.78;;;1.60;;
70796;SDS011;63842;52.144;5.360;2023-04-03T07:31:53;6.43;;;1.92;;
70796;SDS011;63842;52.144;5.360;2023-04-03T07:34:21;5.70;;;1.67;;
70796;SDS011;63842;52.144;5.360;2023-04-03T07:36:49;4.78;;;1.60;;
70796;SDS011;63842;52.144;5.360;2023-04-03T07:39:16;8.50;;;1.60;;
70796;SDS011;63842;52.144;5.360;2023-04-03T07:41:43;9.48;;;1.65;;
70796;SDS011;63842;52.144;5.360;2023-04-03T07:44:10;7.63;;;1.90;;
70796;SDS011;63842;52.144;5.360;2023-04-03T07:46:38;6.03;;;1.67;;
70796;SDS011;63842;52.144;5.360;2023-04-03T07:49:07;4.38;;;1.48;;
70796;SDS011;63842;52.144;5.360;2023-04-03T07:51:34;5.95;;;1.77;;
70796;SDS011;63842;52.144;5.360;2023-04-03T07:54:02;4.63;;;1.38;;
70796;SDS011;63842;52.144;5.360;2023-04-03T07:56:30;6.28;;;1.42;;
70796;SDS011;63842;52.144;5.360;2023-04-03T07:58:58;5.38;;;1.63;;
70796;SDS011;63842;52.144;5.360;2023-04-03T08:01:25;4.93;;;1.35;;
70796;SDS011;63842;52.144;5.360;2023-04-03T08:03:52;6.93;;;1.60;;
70796;SDS011;63842;52.144;5.360;2023-04-03T08:06:20;7.57;;;1.50;;
70796;SDS011;63842;52.144;5.360;2023-04-03T08:09:03;5.72;;;1.38;;
70796;SDS011;63842;52.144;5.360;2023-04-03T08:11:30;5.18;;;1.55;;
70796;SDS011;63842;52.144;5.360;2023-04-03T08:13:58;7.68;;;1.50;;
70796;SDS011;63842;52.144;5.360;2023-04-03T08:16:25;7.85;;;1.92;;
70796;SDS011;63842;52.144;5.360;2023-04-03T08:18:53;6.93;;;1.85;;
70796;SDS011;63842;52.144;5.360;2023-04-03T08:21:21;6.45;;;2.17;;
70796;SDS011;63842;52.144;5.360;2023-04-03T08:23:48;7.45;;;1.70;;
70796;SDS011;63842;52.144;5.360;2023-04-03T08:26:18;4.50;;;1.45;;
70796;SDS011;63842;52.144;5.360;2023-04-03T08:28:46;5.25;;;1.50;;
70796;SDS011;63842;52.144;5.360;2023-04-03T08:31:15;6.90;;;1.77;;
70796;SDS011;63842;52.144;5.360;2023-04-03T08:33:43;10.07;;;2.17;;
70796;SDS011;63842;52.144;5.360;2023-04-03T08:36:19;6.68;;;1.70;;
70796;SDS011;63842;52.144;5.360;2023-04-03T08:38:47;5.43;;;1.50;;
70796;SDS011;63842;52.144;5.360;2023-04-03T08:43:53;8.38;;;1.70;;
70796;SDS011;63842;52.144;5.360;2023-04-03T08:46:26;4.53;;;1.60;;
70796;SDS011;63842;52.144;5.360;2023-04-03T08:48:54;4.32;;;1.60;;
70796;SDS011;63842;52.144;5.360;2023-04-03T08:51:22;5.75;;;1.60;;
70796;SDS011;63842;52.144;5.360;2023-04-03T08:53:58;5.07;;;1.50;;
70796;SDS011;63842;52.144;5.360;2023-04-03T08:56:29;6.05;;;1.55;;
70796;SDS011;63842;52.144;5.360;2023-04-03T08:58:58;6.90;;;1.30;;
70796;SDS011;63842;52.144;5.360;2023-04-03T09:01:36;7.47;;;1.10;;
70796;SDS011;63842;52.144;5.360;2023-04-03T09:04:11;5.55;;;1.40;;
70796;SDS011;63842;52.144;5.360;2023-04-03T09:06:39;3.47;;;1.10;;
70796;SDS011;63842;52.144;5.360;2023-04-03T09:11:45;3.63;;;1.20;;
70796;SDS011;63842;52.144;5.360;2023-04-03T09:14:16;2.40;;;0.77;;
70796;SDS011;63842;52.144;5.360;2023-04-03T09:16:55;2.10;;;0.90;;
70796;SDS011;63842;52.144;5.360;2023-04-03T09:21:56;2.47;;;0.85;;
70796;SDS011;63842;52.144;5.360;2023-04-03T09:24:23;2.90;;;0.93;;
70796;SDS011;63842;52.144;5.360;2023-04-03T09:26:53;4.85;;;1.02;;
70796;SDS011;63842;52.144;5.360;2023-04-03T09:29:23;3.03;;;1.05;;
70796;SDS011;63842;52.144;5.360;2023-04-03T09:31:52;2.03;;;0.80;;
70796;SDS011;63842;52.144;5.360;2023-04-03T09:36:50;2.55;;;0.75;;
70796;SDS011;63842;52.144;5.360;2023-04-03T09:39:21;4.38;;;0.77;;
70796;SDS011;63842;52.144;5.360;2023-04-03T09:41:56;1.95;;;0.60;;
70796;SDS011;63842;52.144;5.360;2023-04-03T09:44:25;3.20;;;0.90;;
70796;SDS011;63842;52.144;5.360;2023-04-03T09:46:53;2.75;;;0.70;;
70796;SDS011;63842;52.144;5.360;2023-04-03T09:49:20;2.22;;;0.70;;
70796;SDS011;63842;52.144;5.360;2023-04-03T09:51:47;1.42;;;0.60;;
70796;SDS011;63842;52.144;5.360;2023-04-03T09:54:32;1.15;;;0.50;;
70796;SDS011;63842;52.144;5.360;2023-04-03T09:57:01;2.10;;;0.57;;
70796;SDS011;63842;52.144;5.360;2023-04-03T09:59:30;3.50;;;0.70;;
70796;SDS011;63842;52.144;5.360;2023-04-03T10:02:21;1.90;;;0.75;;
70796;SDS011;63842;52.144;5.360;2023-04-03T10:04:45;4.38;;;0.80;;
70796;SDS011;63842;52.144;5.360;2023-04-03T10:07:34;4.07;;;0.73;;
70796;SDS011;63842;52.144;5.360;2023-04-03T10:10:15;4.22;;;0.80;;
70796;SDS011;63842;52.144;5.360;2023-04-03T10:12:44;1.20;;;0.70;;
70796;SDS011;63842;52.144;5.360;2023-04-03T10:15:13;1.02;;;0.38;;
70796;SDS011;63842;52.144;5.360;2023-04-03T10:17:49;2.25;;;0.80;;
70796;SDS011;63842;52.144;5.360;2023-04-03T10:20:25;2.53;;;0.60;;
70796;SDS011;63842;52.144;5.360;2023-04-03T10:28:20;1.77;;;0.60;;
70796;SDS011;63842;52.144;5.360;2023-04-03T10:33:46;1.15;;;0.50;;
70796;SDS011;63842;52.144;5.360;2023-04-03T10:36:35;1.35;;;0.70;;
70796;SDS011;63842;52.144;5.360;2023-04-03T10:57:58;2.72;;;0.80;;
70796;SDS011;63842;52.144;5.360;2023-04-03T11:00:38;1.48;;;0.60;;
70796;SDS011;63842;52.144;5.360;2023-04-03T11:03:09;2.42;;;0.70;;
70796;SDS011;63842;52.144;5.360;2023-04-03T11:05:44;1.75;;;0.68;;
70796;SDS011;63842;52.144;5.360;2023-04-03T11:08:59;2.47;;;0.60;;
70796;SDS011;63842;52.144;5.360;2023-04-03T11:11:00;2.25;;;0.65;;
70796;SDS011;63842;52.144;5.360;2023-04-03T11:13:40;3.72;;;0.60;;
70796;SDS011;63842;52.144;5.360;2023-04-03T11:16:09;0.82;;;0.50;;
70796;SDS011;63842;52.144;5.360;2023-04-03T11:18:48;2.67;;;0.70;;
70796;SDS011;63842;52.144;5.360;2023-04-03T11:21:25;1.98;;;0.70;;
70796;SDS011;63842;52.144;5.360;2023-04-03T11:23:56;3.92;;;0.85;;
70796;SDS011;63842;52.144;5.360;2023-04-03T11:26:26;2.45;;;0.60;;
70796;SDS011;63842;52.144;5.360;2023-04-03T11:29:05;2.20;;;0.82;;
70796;SDS011;63842;52.144;5.360;2023-04-03T11:36:57;2.75;;;1.00;;
70796;SDS011;63842;52.144;5.360;2023-04-03T11:39:28;3.53;;;0.90;;
70796;SDS011;63842;52.144;5.360;2023-04-03T11:44:43;2.97;;;0.93;;
70796;SDS011;63842;52.144;5.360;2023-04-03T11:47:11;2.92;;;0.80;;
70796;SDS011;63842;52.144;5.360;2023-04-03T11:49:52;1.98;;;0.70;;
70796;SDS011;63842;52.144;5.360;2023-04-03T12:01:00;2.42;;;0.80;;
70796;SDS011;63842;52.144;5.360;2023-04-03T12:13:38;3.03;;;0.80;;
70796;SDS011;63842;52.144;5.360;2023-04-03T12:16:08;4.03;;;0.93;;
70796;SDS011;63842;52.144;5.360;2023-04-03T12:21:17;2.67;;;0.88;;
70796;SDS011;63842;52.144;5.360;2023-04-03T12:26:50;3.88;;;1.02;;
70796;SDS011;63842;52.144;5.360;2023-04-03T12:37:29;3.65;;;1.10;;
70796;SDS011;63842;52.144;5.360;2023-04-03T12:40:05;3.13;;;0.75;;
70796;SDS011;63842;52.144;5.360;2023-04-03T12:45:22;3.63;;;0.82;;
70796;SDS011;63842;52.144;5.360;2023-04-03T12:47:50;4.97;;;0.90;;
70796;SDS011;63842;52.144;5.360;2023-04-03T12:50:28;1.83;;;0.80;;
70796;SDS011;63842;52.144;5.360;2023-04-03T12:53:04;2.95;;;0.90;;
70796;SDS011;63842;52.144;5.360;2023-04-03T12:55:32;1.35;;;0.77;;
70796;SDS011;63842;52.144;5.360;2023-04-03T12:58:15;3.72;;;0.80;;
70796;SDS011;63842;52.144;5.360;2023-04-03T13:00:43;3.70;;;0.82;;
70796;SDS011;63842;52.144;5.360;2023-04-03T13:03:21;3.70;;;0.80;;
70796;SDS011;63842;52.144;5.360;2023-04-03T13:05:49;2.63;;;0.90;;
70796;SDS011;63842;52.144;5.360;2023-04-03T13:08:17;4.00;;;0.90;;
70796;SDS011;63842;52.144;5.360;2023-04-03T13:10:56;2.25;;;0.73;;
70796;SDS011;63842;52.144;5.360;2023-04-03T13:13:25;2.85;;;0.90;;
70796;SDS011;63842;52.144;5.360;2023-04-03T13:15:52;4.72;;;0.90;;
70796;SDS011;63842;52.144;5.360;2023-04-03T13:18:31;3.75;;;1.00;;
70796;SDS011;63842;52.144;5.360;2023-04-03T13:21:03;4.65;;;1.02;;
70796;SDS011;63842;52.144;5.360;2023-04-03T13:23:32;3.40;;;0.90;;
70796;SDS011;63842;52.144;5.360;2023-04-03T13:26:01;1.70;;;0.90;;
70796;SDS011;63842;52.144;5.360;2023-04-03T13:28:30;3.70;;;0.85;;
70796;SDS011;63842;52.144;5.360;2023-04-03T13:31:02;3.60;;;1.20;;
70796;SDS011;63842;52.144;5.360;2023-04-03T13:33:31;4.78;;;0.88;;
70796;SDS011;63842;52.144;5.360;2023-04-03T13:36:34;5.38;;;0.90;;
70796;SDS011;63842;52.144;5.360;2023-04-03T13:39:20;3.92;;;0.80;;
70796;SDS011;63842;52.144;5.360;2023-04-03T13:41:46;2.63;;;0.90;;
70796;SDS011;63842;52.144;5.360;2023-04-03T13:46:44;3.60;;;0.82;;
70796;SDS011;63842;52.144;5.360;2023-04-03T13:49:19;4.15;;;1.08;;
70796;SDS011;63842;52.144;5.360;2023-04-03T13:51:46;3.13;;;1.00;;
70796;SDS011;63842;52.144;5.360;2023-04-03T13:54:37;2.95;;;0.90;;
70796;SDS011;63842;52.144;5.360;2023-04-03T13:57:11;4.82;;;1.05;;
70796;SDS011;63842;52.144;5.360;2023-04-03T13:59:40;3.72;;;1.00;;
70796;SDS011;63842;52.144;5.360;2023-04-03T14:07:12;4.22;;;1.17;;
70796;SDS011;63842;52.144;5.360;2023-04-03T14:09:39;4.38;;;0.90;;
70796;SDS011;63842;52.144;5.360;2023-04-03T14:12:18;5.97;;;1.10;;
70796;SDS011;63842;52.144;5.360;2023-04-03T14:14:56;5.95;;;1.30;;
70796;SDS011;63842;52.144;5.360;2023-04-03T14:17:24;3.38;;;0.90;;
70796;SDS011;63842;52.144;5.360;2023-04-03T14:19:53;3.03;;;0.90;;
70796;SDS011;63842;52.144;5.360;2023-04-03T14:22:22;3.53;;;1.02;;
70796;SDS011;63842;52.144;5.360;2023-04-03T14:24:50;2.67;;;1.00;;
70796;SDS011;63842;52.144;5.360;2023-04-03T14:27:22;2.60;;;0.93;;
70796;SDS011;63842;52.144;5.360;2023-04-03T14:29:50;4.68;;;1.13;;
70796;SDS011;63842;52.144;5.360;2023-04-03T14:32:18;2.72;;;1.00;;
70796;SDS011;63842;52.144;5.360;2023-04-03T14:34:46;3.58;;;0.93;;
70796;SDS011;63842;52.144;5.360;2023-04-03T14:37:25;4.10;;;1.10;;
70796;SDS011;63842;52.144;5.360;2023-04-03T14:39:53;2.97;;;0.90;;
70796;SDS011;63842;52.144;5.360;2023-04-03T14:42:22;3.65;;;1.10;;
70796;SDS011;63842;52.144;5.360;2023-04-03T14:44:50;4.10;;;1.23;;
70796;SDS011;63842;52.144;5.360;2023-04-03T14:47:22;3.85;;;1.30;;
70796;SDS011;63842;52.144;5.360;2023-04-03T14:49:58;4.25;;;1.30;;
70796;SDS011;63842;52.144;5.360;2023-04-03T14:52:28;2.58;;;1.00;;
70796;SDS011;63842;52.144;5.360;2023-04-03T14:54:56;6.10;;;1.20;;
70796;SDS011;63842;52.144;5.360;2023-04-03T14:57:25;5.68;;;1.33;;
70796;SDS011;63842;52.144;5.360;2023-04-03T14:59:52;3.60;;;1.17;;
70796;SDS011;63842;52.144;5.360;2023-04-03T15:02:28;4.05;;;1.23;;
70796;SDS011;63842;52.144;5.360;2023-04-03T15:07:24;4.35;;;1.10;;
70796;SDS011;63842;52.144;5.360;2023-04-03T15:09:52;4.65;;;1.10;;
70796;SDS011;63842;52.144;5.360;2023-04-03T15:12:22;5.47;;;1.38;;
70796;SDS011;63842;52.144;5.360;2023-04-03T15:14:50;5.07;;;1.20;;
70796;SDS011;63842;52.144;5.360;2023-04-03T15:17:27;4.00;;;1.17;;
70796;SDS011;63842;52.144;5.360;2023-04-03T15:19:54;2.88;;;1.20;;
70796;SDS011;63842;52.144;5.360;2023-04-03T15:22:22;4.95;;;1.50;;
70796;SDS011;63842;52.144;5.360;2023-04-03T15:24:49;5.72;;;1.80;;
70796;SDS011;63842;52.144;5.360;2023-04-03T15:27:16;6.05;;;1.70;;
70796;SDS011;63842;52.144;5.360;2023-04-03T15:29:44;4.07;;;1.48;;
70796;SDS011;63842;52.144;5.360;2023-04-03T15:32:11;4.68;;;1.30;;
70796;SDS011;63842;52.144;5.360;2023-04-03T15:34:39;4.13;;;1.40;;
70796;SDS011;63842;52.144;5.360;2023-04-03T15:37:06;4.10;;;1.25;;
70796;SDS011;63842;52.144;5.360;2023-04-03T15:39:34;4.80;;;1.30;;
70796;SDS011;63842;52.144;5.360;2023-04-03T15:42:01;3.65;;;1.20;;
70796;SDS011;63842;52.144;5.360;2023-04-03T15:44:33;5.30;;;1.20;;
70796;SDS011;63842;52.144;5.360;2023-04-03T15:47:01;5.45;;;1.30;;
70796;SDS011;63842;52.144;5.360;2023-04-03T15:49:28;2.60;;;1.00;;
70796;SDS011;63842;52.144;5.360;2023-04-03T15:51:56;4.93;;;1.30;;
70796;SDS011;63842;52.144;5.360;2023-04-03T15:54:23;5.93;;;1.20;;
70796;SDS011;63842;52.144;5.360;2023-04-03T15:56:51;5.93;;;1.20;;
70796;SDS011;63842;52.144;5.360;2023-04-03T15:59:18;7.30;;;1.30;;
70796;SDS011;63842;52.144;5.360;2023-04-03T16:01:46;3.55;;;1.25;;
70796;SDS011;63842;52.144;5.360;2023-04-03T16:04:13;7.13;;;1.42;;
70796;SDS011;63842;52.144;5.360;2023-04-03T16:06:41;6.00;;;1.45;;
70796;SDS011;63842;52.144;5.360;2023-04-03T16:09:09;4.57;;;1.40;;
70796;SDS011;63842;52.144;5.360;2023-04-03T16:11:36;5.32;;;1.23;;
70796;SDS011;63842;52.144;5.360;2023-04-03T16:16:33;5.88;;;1.15;;
70796;SDS011;63842;52.144;5.360;2023-04-03T16:19:00;5.57;;;1.30;;
70796;SDS011;63842;52.144;5.360;2023-04-03T16:21:27;4.97;;;1.40;;
70796;SDS011;63842;52.144;5.360;2023-04-03T16:23:58;6.10;;;1.38;;
70796;SDS011;63842;52.144;5.360;2023-04-03T16:26:26;5.05;;;1.30;;
70796;SDS011;63842;52.144;5.360;2023-04-03T16:28:53;4.32;;;1.20;;
70796;SDS011;63842;52.144;5.360;2023-04-03T16:31:20;5.55;;;1.25;;
70796;SDS011;63842;52.144;5.360;2023-04-03T16:33:48;4.70;;;1.30;;
70796;SDS011;63842;52.144;5.360;2023-04-03T16:36:15;4.15;;;1.25;;
70796;SDS011;63842;52.144;5.360;2023-04-03T16:38:43;3.80;;;1.40;;